Time;durP1;ratioP1;P1;durP2;ratioP2;P2;SDS_P1;SDS_P2;PMS_P1;PMS_P2;Temp;Humidity;BMP_temperature;BMP_pressure;BME280_temperature;BME280_humidity;BME280_pressure;Samples;Min_cycle;Max_cycle;Signal;HPM_P1;HPM_P2
2022/05/13 04:16:04;;;;;;;6.90;3.90;;;;;;;19.83;65.07;100485.53;5556978;32;181942;-88
2022/05/13 04:19:00;;;;;;;8.73;4.15;;;;;;;19.66;66.43;100495.91;5542557;32;33860;-87
2022/05/13 04:22:03;;;;;;;7.32;4.28;;;;;;;19.62;67.65;100484.56;5543564;32;34004;-86
2022/05/13 04:25:06;;;;;;;8.45;4.40;;;;;;;19.60;68.57;100488.37;5542742;32;33169;-87
2022/05/13 04:28:09;;;;;;;5.25;4.12;;;;;;;19.41;70.48;100489.13;5543105;32;33873;-87
2022/05/13 04:31:13;;;;;;;6.72;4.50;;;;;;;19.22;71.81;100493.38;5542993;32;33669;-87
2022/05/13 04:34:16;;;;;;;4.87;4.37;;;;;;;19.35;71.56;100494.03;5542956;32;32552;-87
2022/05/13 04:37:19;;;;;;;8.13;4.30;;;;;;;19.33;71.66;100493.31;5542796;32;32519;-88
2022/05/13 04:40:21;;;;;;;4.70;4.22;;;;;;;19.38;72.17;100491.09;5543284;32;33763;-87
2022/05/13 04:43:24;;;;;;;4.55;4.03;;;;;;;19.56;70.93;100498.56;5542821;32;34098;-88
2022/05/13 04:46:27;;;;;;;4.70;3.83;;;;;;;19.74;69.36;100501.50;5541807;32;33170;-87
2022/05/13 04:49:30;;;;;;;7.00;4.20;;;;;;;19.93;68.36;100499.91;5539693;32;34207;-88
2022/05/13 04:52:33;;;;;;;6.03;3.90;;;;;;;20.06;68.42;100497.84;5526321;32;34226;-88
2022/05/13 04:55:36;;;;;;;6.05;3.97;;;;;;;20.04;69.00;100491.75;5524552;32;33586;-88
2022/05/13 04:58:41;;;;;;;9.63;4.20;;;;;;;20.30;68.56;100496.66;5523714;32;33865;-88
2022/05/13 05:01:44;;;;;;;7.57;4.10;;;;;;;20.02;69.84;100504.50;5525796;32;33923;-87
2022/05/13 05:04:47;;;;;;;6.62;4.22;;;;;;;20.25;68.44;100508.81;5525182;32;33403;-87
2022/05/13 05:07:50;;;;;;;9.48;3.90;;;;;;;20.64;66.39;100519.72;5526871;32;32473;-87
2022/05/13 05:10:52;;;;;;;6.53;4.05;;;;;;;20.77;65.78;100522.13;5521984;32;33523;-88
2022/05/13 05:13:55;;;;;;;7.85;4.10;;;;;;;20.78;66.16;100531.09;5522428;32;33250;-88
2022/05/13 05:16:57;;;;;;;6.22;4.00;;;;;;;20.84;66.44;100534.12;5522681;32;31329;-87
2022/05/13 05:20:00;;;;;;;8.77;3.97;;;;;;;20.86;66.18;100529.44;5523148;32;33484;-87
2022/05/13 05:23:05;;;;;;;5.45;4.00;;;;;;;21.00;64.70;100535.41;5534765;32;32937;-87
2022/05/13 05:26:08;;;;;;;5.10;3.90;;;;;;;21.11;64.62;100535.28;5516218;32;34767;-87
2022/05/13 05:29:10;;;;;;;6.05;3.95;;;;;;;21.20;64.09;100532.72;5532863;26;33324;-89
2022/05/13 05:32:13;;;;;;;4.03;3.62;;;;;;;21.39;63.07;100530.03;5516307;32;33545;-89
2022/05/13 05:35:20;;;;;;;9.07;4.20;;;;;;;21.51;63.17;100546.91;5513643;32;32996;-89
2022/05/13 05:38:24;;;;;;;4.90;3.80;;;;;;;21.67;63.57;100546.31;5513518;32;33735;-88
2022/05/13 05:41:27;;;;;;;5.35;4.03;;;;;;;22.25;61.12;100546.31;5518136;32;34613;-88
2022/05/13 05:44:30;;;;;;;6.57;3.78;;;;;;;22.85;59.47;100552.25;5572510;26;32828;-88
2022/05/13 05:47:33;;;;;;;4.65;3.17;;;;;;;23.23;56.81;100552.97;5549162;32;33016;-89
2022/05/13 05:50:36;;;;;;;4.20;3.28;;;;;;;23.65;54.95;100551.50;5549169;32;32716;-88
2022/05/13 05:57:15;;;;;;;3.65;3.00;;;;;;;24.41;52.36;100550.91;5548861;32;32238;-89
2022/05/13 06:00:18;;;;;;;6.85;3.45;;;;;;;24.88;50.60;100549.56;5545855;32;32563;-89
2022/05/13 06:06:52;;;;;;;3.53;3.08;;;;;;;25.16;48.34;100557.38;5527381;32;31944;-89
2022/05/13 06:09:55;;;;;;;7.37;3.08;;;;;;;25.34;48.89;100564.53;5527321;32;34333;-89
2022/05/13 06:16:28;;;;;;;5.60;3.10;;;;;;;25.60;47.85;100560.84;5528465;32;33409;-89
2022/05/13 06:19:31;;;;;;;4.45;2.95;;;;;;;24.86;49.71;100565.16;5529748;32;33107;-88
2022/05/13 06:22:34;;;;;;;5.78;3.05;;;;;;;24.34;50.94;100563.44;5558271;26;33794;-89
2022/05/13 06:25:38;;;;;;;10.95;2.85;;;;;;;24.28;50.66;100572.22;5557958;32;32286;-89
2022/05/13 06:39:56;;;;;;;4.25;2.50;;;;;;;24.80;49.20;100559.50;4933367;29;20398;-88
2022/05/13 06:42:59;;;;;;;4.00;2.78;;;;;;;25.32;47.42;100561.16;5520689;32;33876;-87
2022/05/13 06:46:02;;;;;;;7.25;2.42;;;;;;;25.73;46.06;100564.91;5520040;32;32259;-88
2022/05/13 06:49:07;;;;;;;5.25;3.00;;;;;;;25.56;44.58;100562.19;5515292;32;32590;-87
2022/05/13 06:52:13;;;;;;;5.57;3.05;;;;;;;25.39;45.66;100553.19;5516892;32;32235;-84
2022/05/13 06:55:36;;;;;;;3.30;2.55;;;;;;;24.56;46.33;100561.12;5515840;32;33307;-85
2022/05/13 06:58:38;;;;;;;3.37;2.35;;;;;;;24.47;47.84;100563.81;5512541;32;32312;-85
2022/05/13 07:01:41;;;;;;;2.75;2.55;;;;;;;23.68;48.77;100567.41;5519553;32;34188;-84
2022/05/13 07:04:45;;;;;;;2.85;2.55;;;;;;;23.55;49.74;100572.37;5505163;32;32434;-85
2022/05/13 07:07:48;;;;;;;5.03;2.70;;;;;;;23.32;49.90;100580.97;5506755;32;33160;-85
2022/05/13 07:10:51;;;;;;;2.75;2.55;;;;;;;23.36;50.69;100576.97;5507476;32;33890;-85
2022/05/13 07:13:54;;;;;;;3.92;2.53;;;;;;;23.65;49.51;100575.87;5515656;32;33743;-85
2022/05/13 07:16:56;;;;;;;4.03;2.60;;;;;;;23.57;49.79;100585.78;5530250;32;33613;-84
2022/05/13 07:19:59;;;;;;;6.57;2.90;;;;;;;22.98;51.12;100578.94;5501475;32;33137;-85
2022/05/13 07:23:03;;;;;;;2.95;2.50;;;;;;;23.23;50.93;100579.19;5497961;32;32967;-85
2022/05/13 07:26:06;;;;;;;14.10;2.97;;;;;;;23.69;49.84;100573.69;5500411;32;32946;-85
2022/05/13 07:29:08;;;;;;;3.55;2.75;;;;;;;24.05;48.12;100570.03;5515392;32;33556;-86
2022/05/13 07:32:11;;;;;;;3.37;2.78;;;;;;;24.35;48.02;100570.53;5517552;32;33525;-85
2022/05/13 07:35:14;;;;;;;3.20;2.80;;;;;;;24.41;46.58;100563.63;5518124;32;32210;-84
2022/05/13 07:38:17;;;;;;;3.55;2.80;;;;;;;25.10;46.86;100570.78;5506204;32;32741;-84
2022/05/13 07:41:21;;;;;;;2.72;2.40;;;;;;;26.03;42.73;100567.88;5504648;32;33261;-85
2022/05/13 07:44:24;;;;;;;5.37;2.62;;;;;;;26.10;42.11;100558.03;5519124;32;32281;-86
2022/05/13 07:47:27;;;;;;;4.85;2.67;;;;;;;26.41;42.67;100559.13;5524765;32;32507;-84
2022/05/13 07:50:30;;;;;;;2.75;2.55;;;;;;;26.48;43.10;100563.69;5521608;32;33941;-85
2022/05/13 07:53:34;;;;;;;3.28;2.50;;;;;;;26.11;41.55;100565.16;5519891;32;33985;-85
2022/05/13 07:56:37;;;;;;;4.62;2.50;;;;;;;25.51;44.46;100572.69;5513459;32;34349;-86
2022/05/13 08:03:06;;;;;;;5.47;2.92;;;;;;;25.51;44.85;100570.81;5513761;32;32328;-91
2022/05/13 08:06:12;;;;;;;4.07;2.67;;;;;;;24.90;46.76;100573.81;5526402;32;34612;-86
2022/05/13 08:09:15;;;;;;;3.53;2.78;;;;;;;25.39;45.48;100577.62;5505611;32;33112;-86
2022/05/13 08:12:18;;;;;;;5.68;2.90;;;;;;;25.25;47.12;100579.13;5516189;32;33734;-87
2022/05/13 08:15:21;;;;;;;8.85;2.85;;;;;;;25.28;47.07;100579.63;5496891;32;32369;-86
2022/05/13 08:18:24;;;;;;;6.10;2.60;;;;;;;23.95;49.50;100595.34;5527441;32;34816;-87
2022/05/13 08:21:27;;;;;;;3.83;2.55;;;;;;;24.36;48.38;100593.94;5527237;32;34196;-86
2022/05/13 08:24:30;;;;;;;3.78;2.40;;;;;;;23.44;51.14;100591.56;5529879;32;35676;-86
2022/05/13 08:27:33;;;;;;;4.30;2.62;;;;;;;23.43;51.87;100593.41;5514485;32;32349;-86
2022/05/13 08:30:37;;;;;;;2.95;2.40;;;;;;;23.24;51.85;100594.41;5513602;32;33537;-86
2022/05/13 08:33:41;;;;;;;3.95;2.58;;;;;;;23.68;50.74;100602.59;5509949;32;33392;-88
2022/05/13 08:36:50;;;;;;;3.30;2.60;;;;;;;23.85;50.42;100604.59;5511790;32;34369;-89
2022/05/13 08:39:53;;;;;;;12.65;3.05;;;;;;;23.38;51.56;100602.00;5513990;32;32310;-88
2022/05/13 08:42:56;;;;;;;6.40;2.87;;;;;;;23.31;52.27;100606.34;5515626;32;32806;-88
2022/05/13 08:46:37;;;;;;;3.47;2.78;;;;;;;23.27;52.27;100602.22;5517331;32;34784;-88
2022/05/13 08:50:17;;;;;;;5.12;3.08;;;;;;;23.27;52.33;100604.91;5528455;32;33364;-88
2022/05/13 08:53:29;;;;;;;3.28;2.33;;;;;;;24.02;50.94;100601.00;5525872;32;34131;-89
2022/05/13 08:56:35;;;;;;;8.90;3.08;;;;;;;25.10;49.41;100603.37;5510400;32;33936;-90
2022/05/13 09:00:01;;;;;;;4.97;2.58;;;;;;;26.73;45.20;100593.50;5498235;32;32477;-87
2022/05/13 09:03:26;;;;;;;2.80;2.60;;;;;;;26.42;44.86;100588.00;5499188;32;32505;-89
2022/05/13 09:06:56;;;;;;;7.78;2.97;;;;;;;25.44;47.42;100584.22;5524213;32;34808;-89
2022/05/13 09:10:02;;;;;;;8.30;2.90;;;;;;;26.47;45.66;100585.63;5538553;32;32999;-89
2022/05/13 09:13:16;;;;;;;4.53;3.00;;;;;;;26.71;45.51;100579.22;5552928;32;34633;-89
2022/05/13 09:16:42;;;;;;;5.70;2.90;;;;;;;27.38;43.41;100576.94;5644129;26;33049;-89
2022/05/13 09:19:56;;;;;;;7.55;2.90;;;;;;;27.74;42.16;100589.06;5534550;32;32201;-89
2022/05/13 09:23:00;;;;;;;4.82;3.22;;;;;;;27.24;43.29;100585.87;5518921;32;34371;-89
2022/05/13 09:48:34;;;;;;;4.93;3.00;;;;;;;24.54;50.90;100601.12;1982968;26;20103;-89
2022/05/13 09:51:54;;;;;;;4.18;3.22;;;;;;;24.86;50.81;100600.44;5627545;26;34001;-88
2022/05/13 09:58:50;;;;;;;8.45;3.60;;;;;;;24.85;52.93;100603.31;4986416;26;20164;-89
2022/05/13 10:05:33;;;;;;;5.00;3.20;;;;;;;24.95;51.76;100608.59;4698320;26;20651;-89
2022/05/13 10:08:51;;;;;;;5.72;3.15;;;;;;;23.87;53.90;100602.56;5540842;32;34018;-91
2022/05/13 10:27:30;;;;;;;4.22;3.30;;;;;;;23.44;57.56;100594.28;1741024;26;20115;-89
2022/05/13 10:30:41;;;;;;;4.03;3.50;;;;;;;23.35;58.50;100593.34;5517220;32;34524;-89
2022/05/13 10:34:03;;;;;;;4.25;3.60;;;;;;;23.53;58.12;100585.25;5498452;32;33180;-87
2022/05/13 10:37:28;;;;;;;3.70;3.30;;;;;;;23.23;58.80;100584.59;5617699;26;33958;-89
2022/05/13 10:40:39;;;;;;;4.80;3.40;;;;;;;23.14;59.58;100579.09;5516163;32;33154;-89
2022/05/13 10:43:48;;;;;;;6.65;3.75;;;;;;;23.50;58.45;100578.28;5584010;26;33950;-88
2022/05/13 10:46:54;;;;;;;4.60;3.55;;;;;;;23.78;57.91;100578.12;5560513;32;33605;-88
2022/05/13 10:58:16;;;;;;;3.92;3.03;;;;;;;24.97;51.63;100572.13;2336661;26;20346;-90
2022/05/13 11:01:55;;;;;;;5.57;3.30;;;;;;;24.99;51.78;100577.41;5516946;32;32284;-90
2022/05/13 11:08:53;;;;;;;6.87;3.37;;;;;;;25.01;50.18;100572.66;5556388;26;20107;-88
2022/05/13 11:12:20;;;;;;;6.07;3.35;;;;;;;25.22;48.99;100566.75;5513997;32;32239;-89
2022/05/13 11:15:45;;;;;;;3.37;3.05;;;;;;;25.18;50.01;100565.38;5517828;32;33993;-88
2022/05/13 11:19:12;;;;;;;4.18;3.08;;;;;;;25.68;47.74;100565.41;5529717;32;34005;-88
2022/05/13 11:22:44;;;;;;;5.68;3.00;;;;;;;25.35;49.42;100558.09;5517408;32;34384;-89
2022/05/13 11:25:56;;;;;;;5.57;2.87;;;;;;;25.91;48.59;100549.25;5523344;32;34111;-90
2022/05/13 11:29:07;;;;;;;15.20;3.33;;;;;;;26.39;46.50;100547.59;5507809;32;31538;-89
2022/05/13 11:32:20;;;;;;;3.78;3.28;;;;;;;26.45;45.08;100539.56;5502476;32;34650;-89
2022/05/13 11:35:29;;;;;;;3.22;3.00;;;;;;;25.60;47.29;100544.53;5506069;32;32303;-90
2022/05/13 11:38:58;;;;;;;7.95;3.30;;;;;;;25.80;47.34;100538.75;5515189;32;33954;-90
2022/05/13 11:42:07;;;;;;;7.30;3.42;;;;;;;25.59;47.72;100537.41;5509140;32;32611;-89
2022/05/13 11:45:32;;;;;;;8.98;3.37;;;;;;;25.96;47.52;100538.69;5524274;32;32556;-89
2022/05/13 11:48:43;;;;;;;14.95;3.87;;;;;;;25.03;49.84;100538.91;5518194;32;33488;-89
2022/05/13 11:55:45;;;;;;;8.50;3.00;;;;;;;25.75;47.52;100541.94;4133937;26;20422;-89
2022/05/13 11:58:51;;;;;;;8.77;3.10;;;;;;;25.03;49.10;100541.63;5511664;32;34140;-88
2022/05/13 12:02:12;;;;;;;5.68;2.70;;;;;;;24.97;48.03;100544.12;5501194;32;32306;-88
2022/05/13 12:16:32;;;;;;;4.05;2.45;;;;;;;23.63;49.30;100558.06;956239;26;20401;-88
2022/05/13 13:06:53;;;;;;;3.30;2.42;;;;;;;21.93;50.79;100529.50;2334029;26;20204;-88
2022/05/13 13:09:57;;;;;;;2.87;2.58;;;;;;;22.41;49.84;100533.97;5464259;32;33392;-88
2022/05/13 13:13:07;;;;;;;7.80;2.45;;;;;;;22.41;50.44;100533.97;5473253;32;34279;-89
2022/05/13 13:16:41;;;;;;;3.15;2.50;;;;;;;22.25;48.74;100530.09;5476575;27;34141;-87
2022/05/13 13:19:45;;;;;;;5.90;2.20;;;;;;;22.51;50.21;100520.41;5519563;27;33753;-89
2022/05/13 13:22:54;;;;;;;2.55;2.33;;;;;;;22.66;49.50;100518.06;5471837;32;34506;-91
2022/05/13 13:26:00;;;;;;;5.15;2.28;;;;;;;22.46;50.19;100512.75;5458686;32;33797;-92
2022/05/13 13:29:05;;;;;;;2.35;2.15;;;;;;;22.07;50.33;100520.06;5458537;32;32679;-88
2022/05/13 13:32:16;;;;;;;3.33;2.58;;;;;;;21.62;52.66;100505.41;5470499;32;32291;-88
2022/05/13 13:35:42;;;;;;;6.07;3.05;;;;;;;21.57;53.33;100487.94;5468574;32;34330;-88
2022/05/13 13:38:53;;;;;;;4.85;2.70;;;;;;;21.46;54.91;100488.97;5474132;32;32440;-89
2022/05/13 13:42:07;;;;;;;7.75;2.87;;;;;;;21.64;54.39;100476.44;5477874;32;33873;-89
2022/05/13 13:45:24;;;;;;;3.28;2.70;;;;;;;21.81;55.53;100469.44;5509728;32;34099;-88
2022/05/13 13:48:31;;;;;;;3.33;2.85;;;;;;;21.76;55.61;100469.03;5509099;32;34586;-87
2022/05/13 13:51:43;;;;;;;5.30;2.70;;;;;;;21.90;55.76;100467.69;5496445;32;32392;-87
2022/05/13 13:54:53;;;;;;;7.50;2.35;;;;;;;21.39;57.80;100459.00;5497430;32;32360;-87
2022/05/13 13:58:23;;;;;;;3.97;2.28;;;;;;;21.12;58.28;100466.84;5497556;32;32195;-87
2022/05/13 14:01:28;;;;;;;4.32;2.40;;;;;;;21.22;57.37;100469.53;5496661;32;33308;-88
2022/05/13 14:04:31;;;;;;;5.18;2.55;;;;;;;21.23;57.58;100441.56;5511054;32;33985;-87
2022/05/13 14:07:43;;;;;;;8.88;2.87;;;;;;;20.80;59.53;100442.84;5497151;32;32911;-92
2022/05/13 14:10:49;;;;;;;4.30;2.65;;;;;;;21.08;59.70;100448.41;5497330;32;32746;-92
2022/05/13 14:13:54;;;;;;;4.97;2.95;;;;;;;20.65;63.48;100472.06;5497314;32;32822;-88
2022/05/13 14:17:05;;;;;;;5.60;2.65;;;;;;;20.56;67.13;100457.56;5497763;32;32832;-89
2022/05/13 14:20:13;;;;;;;5.15;3.10;;;;;;;20.79;66.40;100446.53;5496764;32;32536;-88
2022/05/13 14:23:17;;;;;;;7.87;3.20;;;;;;;21.08;65.70;100460.03;5498590;32;32416;-89
2022/05/13 14:26:20;;;;;;;4.45;3.00;;;;;;;21.02;66.74;100455.22;5522461;32;34333;-87
2022/05/13 14:29:25;;;;;;;7.43;2.65;;;;;;;21.37;63.68;100445.66;5498691;32;33560;-89
2022/05/13 14:32:38;;;;;;;5.47;3.00;;;;;;;21.24;64.23;100439.72;5496803;32;32461;-87
2022/05/13 14:35:41;;;;;;;10.73;2.67;;;;;;;21.43;63.92;100429.87;5496593;32;32448;-87
2022/05/13 14:42:17;;;;;;;3.85;2.50;;;;;;;21.52;60.40;100391.25;5496927;32;33030;-88
2022/05/13 14:45:29;;;;;;;7.37;2.73;;;;;;;21.98;58.43;100379.69;5511286;32;33688;-88
2022/05/13 14:48:33;;;;;;;2.58;2.37;;;;;;;21.84;58.72;100381.88;5511106;32;33491;-86
2022/05/13 14:51:41;;;;;;;3.00;2.15;;;;;;;22.21;58.23;100375.56;5497083;32;32467;-88
2022/05/13 14:54:45;;;;;;;6.57;2.28;;;;;;;22.44;56.22;100376.94;5497270;32;32808;-88
2022/05/13 14:57:48;;;;;;;6.28;2.40;;;;;;;22.43;57.10;100370.69;5509452;32;34573;-88
2022/05/13 15:00:55;;;;;;;4.43;2.20;;;;;;;22.24;57.63;100385.22;5495728;32;32700;-88
2022/05/13 15:03:59;;;;;;;3.28;2.35;;;;;;;21.76;58.19;100390.72;5496932;32;32385;-88
2022/05/13 15:07:20;;;;;;;3.22;2.58;;;;;;;21.51;60.10;100390.38;5496854;32;34444;-88
2022/05/13 15:10:24;;;;;;;2.95;2.15;;;;;;;21.47;59.13;100393.53;5472350;32;32315;-90
2022/05/13 15:13:27;;;;;;;3.05;2.08;;;;;;;21.60;59.13;100399.44;5492167;32;35698;-92
2022/05/13 15:16:31;;;;;;;2.17;2.08;;;;;;;21.76;58.54;100392.56;5478631;32;33480;-93
2022/05/13 15:19:38;;;;;;;4.87;2.08;;;;;;;21.52;58.27;100391.25;5491665;32;33607;-88
2022/05/13 15:22:42;;;;;;;2.87;2.40;;;;;;;21.38;58.50;100379.06;5478798;32;33211;-88
2022/05/13 15:25:47;;;;;;;6.47;2.55;;;;;;;21.57;59.60;100393.50;5478715;32;32301;-88
2022/05/13 15:28:50;;;;;;;4.70;2.37;;;;;;;21.64;57.16;100387.34;5487705;32;32850;-88
2022/05/13 15:31:53;;;;;;;2.87;2.10;;;;;;;21.73;57.46;100391.00;5492242;32;33934;-87
2022/05/13 15:34:56;;;;;;;2.97;2.30;;;;;;;21.76;56.36;100392.56;5485542;32;33804;-88
